Time;durP1;ratioP1;P1;durP2;ratioP2;P2;SDS_P1;SDS_P2;PMS_P1;PMS_P2;Temp;Humidity;BMP_temperature;BMP_pressure;BME280_temperature;BME280_humidity;BME280_pressure;Samples;Min_cycle;Max_cycle;Signal;HPM_P1;HPM_P2
2021/07/05 00:00:33;;;;;;;5.20;4.33;;;;;;;17.96;87.55;99819.16;5064933;28;20694;-73
2021/07/05 00:02:59;;;;;;;5.07;3.97;;;;;;;17.85;87.52;99818.94;5064413;28;20223;-72
2021/07/05 00:05:26;;;;;;;4.70;4.40;;;;;;;17.83;88.06;99805.81;5064831;28;20423;-73
2021/07/05 00:07:53;;;;;;;4.20;3.87;;;;;;;17.88;88.05;99804.69;5064861;28;20227;-72
2021/07/05 00:10:21;;;;;;;4.00;3.60;;;;;;;17.90;87.68;99811.59;5064743;28;20719;-72
2021/07/05 00:12:50;;;;;;;4.27;3.87;;;;;;;17.88;87.53;99826.69;5064228;28;20218;-72
2021/07/05 00:15:20;;;;;;;5.60;4.07;;;;;;;17.90;87.88;99818.63;5064557;28;20212;-72
2021/07/05 00:17:47;;;;;;;4.47;4.00;;;;;;;17.88;87.91;99805.56;5064127;28;20762;-70
2021/07/05 00:20:14;;;;;;;4.10;3.80;;;;;;;17.85;87.36;99816.28;5063946;28;20239;-73
2021/07/05 00:22:40;;;;;;;8.83;4.00;;;;;;;17.84;87.66;99812.81;5064370;28;20218;-73
2021/07/05 00:25:08;;;;;;;5.40;3.90;;;;;;;17.90;87.85;99814.22;5064438;28;20208;-72
2021/07/05 00:27:34;;;;;;;4.30;3.33;;;;;;;17.89;87.41;99825.72;5064210;28;20226;-72
2021/07/05 00:30:02;;;;;;;5.03;3.70;;;;;;;17.77;87.02;99853.66;5064255;28;20286;-72
2021/07/05 00:32:28;;;;;;;4.67;4.03;;;;;;;17.71;87.62;99834.69;5064247;28;20208;-72
2021/07/05 00:34:55;;;;;;;4.60;4.20;;;;;;;17.51;87.34;99841.13;5064227;28;20218;-72
2021/07/05 00:37:21;;;;;;;6.87;3.93;;;;;;;17.52;88.05;99806.75;5064026;28;20226;-72
2021/07/05 00:39:48;;;;;;;8.20;4.60;;;;;;;17.59;87.89;99805.44;5062848;28;20593;-72
2021/07/05 00:42:15;;;;;;;5.57;4.13;;;;;;;17.63;87.98;99816.66;5063891;28;20574;-72
2021/07/05 00:44:41;;;;;;;6.67;4.70;;;;;;;17.69;88.02;99807.53;5064215;28;20198;-72
2021/07/05 00:47:09;;;;;;;5.97;4.43;;;;;;;17.72;88.38;99802.94;5063936;28;20232;-72
2021/07/05 00:49:36;;;;;;;4.77;4.03;;;;;;;17.71;87.65;99822.34;5064152;28;20693;-72
2021/07/05 00:52:03;;;;;;;4.77;4.23;;;;;;;17.64;87.19;99842.09;5063467;28;20210;-72
2021/07/05 00:54:30;;;;;;;6.87;4.23;;;;;;;17.72;86.98;99841.66;5063503;28;20203;-72
2021/07/05 00:56:56;;;;;;;4.60;4.03;;;;;;;17.71;87.00;99847.91;5063699;28;20737;-72
2021/07/05 00:59:23;;;;;;;5.47;4.77;;;;;;;17.71;86.46;99871.66;5063458;28;20363;-72
2021/07/05 01:01:49;;;;;;;5.40;4.90;;;;;;;17.72;87.05;99854.84;5063550;28;20253;-73
2021/07/05 01:04:17;;;;;;;4.93;4.47;;;;;;;17.74;87.00;99848.56;5063700;28;20207;-73
2021/07/05 01:06:44;;;;;;;5.97;4.83;;;;;;;17.64;86.31;99881.69;5064030;28;20733;-72
2021/07/05 01:09:10;;;;;;;4.43;4.03;;;;;;;17.65;86.32;99880.78;5063988;28;20207;-72
2021/07/05 01:11:37;;;;;;;5.50;4.80;;;;;;;17.60;86.17;99880.16;5064313;28;20205;-73
2021/07/05 01:14:04;;;;;;;5.33;4.77;;;;;;;17.61;86.20;99892.44;5063440;28;20206;-72
2021/07/05 01:16:30;;;;;;;6.20;5.60;;;;;;;17.64;86.29;99881.69;5063266;28;20232;-72
2021/07/05 01:18:57;;;;;;;6.77;5.13;;;;;;;17.62;86.11;99887.09;5063634;28;20206;-72
2021/07/05 01:21:25;;;;;;;5.20;4.70;;;;;;;17.63;86.47;99877.38;5063492;28;20235;-72
2021/07/05 01:23:52;;;;;;;6.23;4.40;;;;;;;17.65;85.84;99893.97;5062784;28;20219;-72
2021/07/05 01:26:18;;;;;;;7.00;4.80;;;;;;;17.65;85.65;99915.09;5063154;28;20211;-73
2021/07/05 01:28:45;;;;;;;9.07;6.00;;;;;;;17.62;85.74;99895.00;5063092;28;20202;-71
2021/07/05 01:31:11;;;;;;;9.00;5.83;;;;;;;17.59;86.36;99883.75;5062858;28;20298;-72
2021/07/05 01:33:38;;;;;;;6.80;5.47;;;;;;;17.58;86.27;99877.66;5062839;28;20211;-72
2021/07/05 01:36:05;;;;;;;6.37;5.47;;;;;;;17.58;86.12;99889.97;5063236;28;20654;-72
2021/07/05 01:38:32;;;;;;;9.87;5.50;;;;;;;17.54;86.64;99868.19;5063071;28;20210;-72
2021/07/05 01:41:02;;;;;;;5.10;4.67;;;;;;;17.54;86.66;99862.94;5062454;28;20593;-72
2021/07/05 01:43:29;;;;;;;6.90;5.67;;;;;;;17.54;86.64;99857.66;5062497;28;20210;-72
2021/07/05 01:45:56;;;;;;;5.60;4.97;;;;;;;17.49;86.24;99867.59;5062812;28;20201;-72
2021/07/05 01:48:23;;;;;;;7.97;5.63;;;;;;;17.44;86.47;99852.03;5062891;28;20225;-72
2021/07/05 01:50:49;;;;;;;5.77;4.90;;;;;;;17.46;86.38;99860.72;5062734;28;20228;-72
2021/07/05 01:53:18;;;;;;;5.83;4.87;;;;;;;17.35;86.03;99886.00;5062456;28;20210;-72
2021/07/05 01:55:47;;;;;;;6.97;5.30;;;;;;;17.32;86.25;99876.44;5062741;28;20230;-72
2021/07/05 01:58:13;;;;;;;5.80;5.30;;;;;;;17.32;86.03;99879.09;5062571;28;20667;-72
2021/07/05 02:00:45;;;;;;;4.87;4.27;;;;;;;16.99;86.25;99877.41;5062201;28;20232;-72
2021/07/05 02:03:12;;;;;;;7.60;4.97;;;;;;;17.00;87.11;99841.31;5062323;28;20204;-72
2021/07/05 02:05:39;;;;;;;5.70;4.03;;;;;;;17.01;86.47;99858.88;5062352;28;20911;-72
2021/07/05 02:08:06;;;;;;;7.53;4.90;;;;;;;17.09;87.12;99847.91;5062532;28;20249;-72
2021/07/05 02:10:36;;;;;;;8.07;4.20;;;;;;;17.11;87.00;99846.03;5062781;28;20209;-72
2021/07/05 02:13:11;;;;;;;4.10;3.67;;;;;;;17.13;87.20;99833.59;5062065;28;20215;-72
2021/07/05 02:15:39;;;;;;;6.07;4.00;;;;;;;17.14;86.87;99846.69;5062141;28;20206;-72
2021/07/05 02:18:05;;;;;;;8.63;4.07;;;;;;;17.14;86.81;99848.47;5062224;28;20225;-72
2021/07/05 02:20:33;;;;;;;5.00;4.03;;;;;;;17.10;86.84;99854.84;5062285;28;20741;-72
2021/07/05 02:23:01;;;;;;;5.03;3.70;;;;;;;17.07;87.17;99846.19;5061992;28;20579;-72
2021/07/05 02:25:30;;;;;;;5.57;3.97;;;;;;;17.06;86.95;99848.91;5062534;28;20676;-72
2021/07/05 02:27:57;;;;;;;3.90;3.13;;;;;;;17.03;86.28;99886.84;5062079;28;20232;-72
2021/07/05 02:30:27;;;;;;;6.80;3.10;;;;;;;17.07;86.30;99877.81;5062434;28;20213;-72
2021/07/05 02:32:54;;;;;;;4.20;2.90;;;;;;;17.05;86.53;99865.66;5061870;28;20212;-72
2021/07/05 02:35:22;;;;;;;3.43;3.03;;;;;;;17.04;87.01;99850.78;5062352;28;20205;-72
2021/07/05 02:37:50;;;;;;;6.40;2.83;;;;;;;16.95;86.06;99888.22;5062336;28;20217;-72
2021/07/05 02:40:19;;;;;;;2.23;1.97;;;;;;;16.88;85.43;99911.41;5062417;28;20224;-72
2021/07/05 02:42:46;;;;;;;2.13;2.00;;;;;;;16.85;85.43;99917.69;5060589;28;20227;-72
2021/07/05 02:45:16;;;;;;;2.50;2.23;;;;;;;16.77;84.81;99937.44;5062240;28;20203;-72
2021/07/05 02:47:44;;;;;;;1.80;1.70;;;;;;;16.71;84.99;99932.50;5062162;28;20606;-72
2021/07/05 02:50:12;;;;;;;4.90;2.00;;;;;;;16.75;85.73;99910.31;5061693;28;20216;-72
2021/07/05 02:52:39;;;;;;;4.03;1.90;;;;;;;16.74;85.60;99895.44;5061409;28;20216;-72
2021/07/05 02:55:07;;;;;;;4.40;2.23;;;;;;;16.75;85.26;99923.47;5062266;28;20204;-72
2021/07/05 02:57:33;;;;;;;4.40;1.90;;;;;;;16.83;85.66;99910.81;5061936;28;20216;-72
2021/07/05 03:00:02;;;;;;;3.93;1.77;;;;;;;16.81;85.83;99904.72;5061930;28;20210;-72
2021/07/05 03:02:30;;;;;;;4.47;2.20;;;;;;;16.79;85.76;99896.91;5061178;28;20234;-72
2021/07/05 03:04:58;;;;;;;1.73;1.43;;;;;;;16.78;85.96;99889.91;5062117;28;20378;-72
2021/07/05 03:07:25;;;;;;;2.53;1.97;;;;;;;16.73;85.95;99901.63;5062142;28;20586;-72
2021/07/05 03:09:51;;;;;;;2.67;2.47;;;;;;;16.70;86.32;99896.53;5061856;28;20384;-72
2021/07/05 03:12:18;;;;;;;2.33;1.97;;;;;;;16.71;86.01;99906.13;5061684;28;20381;-72
2021/07/05 03:14:45;;;;;;;1.60;1.50;;;;;;;16.63;86.48;99893.34;5061958;28;20211;-72
2021/07/05 03:17:12;;;;;;;2.97;1.60;;;;;;;16.60;86.38;99883.84;5064715;28;20715;-72
2021/07/05 03:19:38;;;;;;;3.87;1.53;;;;;;;16.61;86.76;99869.75;5065277;28;20584;-71
2021/07/05 03:22:06;;;;;;;2.23;1.40;;;;;;;16.59;86.45;99890.06;5065854;28;20591;-72
2021/07/05 03:24:33;;;;;;;2.80;1.53;;;;;;;16.52;86.49;99893.94;5065279;28;20197;-72
2021/07/05 03:27:00;;;;;;;2.93;1.77;;;;;;;16.51;86.55;99881.72;5065299;28;20601;-72
2021/07/05 03:29:26;;;;;;;3.13;2.07;;;;;;;16.52;86.80;99893.09;5065762;28;20210;-72
2021/07/05 03:31:53;;;;;;;6.73;2.00;;;;;;;16.48;86.81;99884.50;5065255;28;20687;-72
2021/07/05 03:34:19;;;;;;;2.40;2.00;;;;;;;16.51;86.30;99897.50;5065272;28;20197;-72
2021/07/05 03:36:46;;;;;;;2.87;2.10;;;;;;;16.46;86.58;99881.94;5065389;28;20231;-72
2021/07/05 03:39:13;;;;;;;2.87;1.90;;;;;;;16.46;86.78;99878.44;5065470;28;20212;-72
2021/07/05 03:41:40;;;;;;;2.07;1.97;;;;;;;16.37;87.20;99853.44;5065136;28;20723;-72
2021/07/05 03:44:06;;;;;;;2.43;2.23;;;;;;;16.36;87.22;99853.53;5064412;28;20215;-72
2021/07/05 03:46:33;;;;;;;4.80;2.00;;;;;;;16.32;87.43;99844.94;5065340;28;20224;-72
2021/07/05 03:48:59;;;;;;;3.90;1.73;;;;;;;16.33;87.26;99851.03;5065188;28;20202;-72
2021/07/05 03:51:26;;;;;;;2.17;1.97;;;;;;;16.34;87.35;99835.16;5064917;28;20210;-72
2021/07/05 03:53:52;;;;;;;2.30;1.53;;;;;;;16.35;87.01;99842.16;5064564;28;20591;-73
2021/07/05 03:56:20;;;;;;;1.93;1.60;;;;;;;16.36;87.02;99838.56;5064977;28;20212;-72
2021/07/05 03:58:47;;;;;;;2.17;1.87;;;;;;;16.34;87.36;99826.41;5064971;28;20201;-72
2021/07/05 04:01:13;;;;;;;2.00;1.63;;;;;;;16.32;87.44;99813.31;5064884;28;20237;-72
2021/07/05 04:03:40;;;;;;;4.03;1.80;;;;;;;16.33;87.50;99814.16;5064532;28;20798;-72
2021/07/05 04:06:06;;;;;;;1.87;1.67;;;;;;;16.35;87.88;99801.75;5064513;28;20216;-72
2021/07/05 04:08:35;;;;;;;4.83;1.57;;;;;;;16.32;87.64;99813.31;5064711;28;20226;-72
2021/07/05 04:11:02;;;;;;;7.00;2.60;;;;;;;16.35;87.57;99810.53;5064990;28;20201;-72
2021/07/05 04:13:31;;;;;;;3.37;1.90;;;;;;;16.35;87.58;99812.28;5064774;28;20204;-72
2021/07/05 04:15:58;;;;;;;3.57;2.03;;;;;;;16.38;87.72;99805.09;5064461;28;20575;-72
2021/07/05 04:18:25;;;;;;;3.17;2.00;;;;;;;16.37;87.97;99813.06;5064564;28;20229;-72
2021/07/05 04:20:52;;;;;;;2.07;1.77;;;;;;;16.30;87.88;99809.06;5064114;28;20668;-72
2021/07/05 04:23:20;;;;;;;2.13;1.80;;;;;;;16.33;88.33;99790.47;5064306;28;20228;-72
2021/07/05 04:25:47;;;;;;;4.50;2.13;;;;;;;16.28;88.27;99804.72;5064072;28;20210;-72
2021/07/05 04:28:14;;;;;;;3.70;2.07;;;;;;;16.29;87.96;99800.31;5064538;28;20265;-72
2021/07/05 04:30:41;;;;;;;2.53;2.23;;;;;;;16.33;87.93;99806.25;5064334;28;20684;-72
2021/07/05 04:33:08;;;;;;;2.30;2.10;;;;;;;16.32;87.80;99813.31;5064109;28;20212;-72
2021/07/05 04:35:35;;;;;;;4.03;1.97;;;;;;;16.28;88.07;99802.09;5064244;28;20338;-72
2021/07/05 04:38:02;;;;;;;2.40;2.20;;;;;;;16.32;87.76;99809.84;5064154;28;20295;-72
2021/07/05 04:40:30;;;;;;;8.13;2.30;;;;;;;16.27;88.30;99787.25;5064089;28;20598;-73
2021/07/05 04:42:57;;;;;;;1.90;1.70;;;;;;;16.28;87.90;99798.63;5063622;28;20255;-72
2021/07/05 04:45:27;;;;;;;2.83;1.97;;;;;;;16.32;88.13;99801.94;5063809;28;20216;-72
2021/07/05 04:47:57;;;;;;;4.60;2.53;;;;;;;16.32;88.34;99789.63;5064123;28;20239;-72
2021/07/05 04:50:24;;;;;;;2.37;2.27;;;;;;;16.34;88.52;99785.13;5063791;28;20381;-72
2021/07/05 04:52:51;;;;;;;2.40;2.07;;;;;;;16.37;88.84;99770.91;5063634;28;20212;-72
2021/07/05 04:55:19;;;;;;;2.73;2.53;;;;;;;16.40;89.04;99763.72;5064522;28;20209;-72
2021/07/05 04:57:48;;;;;;;2.70;2.30;;;;;;;16.46;88.53;99776.56;5063622;28;20606;-72
2021/07/05 05:00:17;;;;;;;2.10;2.00;;;;;;;16.49;88.83;99759.75;5063559;28;20213;-72
2021/07/05 05:02:44;;;;;;;4.77;2.63;;;;;;;16.57;88.14;99789.16;5063314;28;20230;-72
2021/07/05 05:05:12;;;;;;;2.20;2.00;;;;;;;16.64;88.04;99793.16;5063549;28;20201;-72
2021/07/05 05:07:39;;;;;;;2.57;2.37;;;;;;;16.73;87.54;99819.94;5063855;28;20522;-72
2021/07/05 05:10:08;;;;;;;4.40;3.00;;;;;;;16.77;89.15;99750.28;5063720;28;20263;-72
2021/07/05 05:12:35;;;;;;;2.87;2.50;;;;;;;16.81;89.39;99730.75;5062698;28;20695;-73
2021/07/05 05:15:03;;;;;;;3.40;2.70;;;;;;;16.79;89.14;99751.09;5061920;28;20213;-73
2021/07/05 05:17:29;;;;;;;4.13;2.53;;;;;;;16.72;89.10;99755.84;5062902;28;20229;-73
2021/07/05 05:19:56;;;;;;;2.03;1.93;;;;;;;16.64;88.22;99787.88;5062447;28;20577;-73
2021/07/05 05:22:24;;;;;;;2.20;1.90;;;;;;;16.70;88.56;99783.22;5062290;28;20227;-73
2021/07/05 05:24:50;;;;;;;2.10;1.90;;;;;;;16.74;89.05;99753.97;5062813;28;20209;-73
2021/07/05 05:27:17;;;;;;;2.13;1.90;;;;;;;16.85;89.69;99729.69;5062490;28;20956;-73
2021/07/05 05:29:44;;;;;;;2.23;2.03;;;;;;;16.71;89.71;99740.97;5062763;28;20212;-72
2021/07/05 05:32:11;;;;;;;2.87;2.40;;;;;;;16.71;89.89;99734.81;5062718;28;20204;-73
2021/07/05 05:34:37;;;;;;;2.90;1.93;;;;;;;16.74;90.11;99721.50;5062299;28;20213;-73
2021/07/05 05:37:04;;;;;;;2.10;2.00;;;;;;;16.79;90.46;99707.13;5061859;28;20241;-73
2021/07/05 05:39:32;;;;;;;2.43;2.23;;;;;;;16.87;89.55;99741.00;5061994;28;20221;-73
2021/07/05 05:41:59;;;;;;;2.27;2.07;;;;;;;16.90;88.30;99780.34;5061380;28;20225;-72
2021/07/05 05:44:25;;;;;;;2.33;2.10;;;;;;;16.94;88.57;99796.84;5062823;28;20214;-72
2021/07/05 05:46:51;;;;;;;2.30;2.10;;;;;;;17.05;89.16;99783.94;5062536;28;20628;-73
2021/07/05 05:49:18;;;;;;;3.40;2.67;;;;;;;17.03;87.82;99820.06;5062701;28;20202;-73
2021/07/05 05:51:44;;;;;;;2.10;2.00;;;;;;;17.04;86.95;99867.44;5062009;28;20202;-73
2021/07/05 05:54:11;;;;;;;4.90;2.00;;;;;;;17.15;87.49;99845.75;5061978;28;20247;-73
2021/07/05 05:56:40;;;;;;;3.27;2.40;;;;;;;17.23;87.67;99834.78;5061684;28;20700;-72
2021/07/05 05:59:09;;;;;;;5.83;1.97;;;;;;;17.19;85.98;99915.88;5061926;28;20296;-73
2021/07/05 06:01:37;;;;;;;2.10;1.90;;;;;;;17.26;86.31;99900.53;5062594;28;20207;-73
2021/07/05 06:04:04;;;;;;;4.20;2.37;;;;;;;17.32;85.19;99938.94;5059128;28;20872;-74
2021/07/05 06:06:32;;;;;;;2.97;2.67;;;;;;;17.34;85.19;99926.50;5061879;28;20812;-73
2021/07/05 06:08:59;;;;;;;2.10;2.00;;;;;;;17.36;85.37;99928.13;5062157;28;20206;-72
2021/07/05 06:11:26;;;;;;;4.73;2.00;;;;;;;17.35;83.67;99973.91;5062765;28;20214;-75
2021/07/05 06:13:54;;;;;;;3.37;2.00;;;;;;;17.44;84.20;99975.19;5062165;28;20209;-73
2021/07/05 06:16:20;;;;;;;3.43;2.53;;;;;;;17.40;83.46;99992.13;5062694;28;20563;-73
2021/07/05 06:18:47;;;;;;;7.63;2.70;;;;;;;17.43;83.55;100000.72;5061981;28;20201;-73
2021/07/05 06:21:13;;;;;;;2.47;2.27;;;;;;;17.48;83.36;100011.03;5061970;28;20206;-73
2021/07/05 06:23:40;;;;;;;4.00;1.87;;;;;;;17.52;81.46;100073.28;5061782;28;20635;-73
2021/07/05 06:26:06;;;;;;;2.10;2.00;;;;;;;17.43;80.39;100119.47;5062320;28;20208;-73
2021/07/05 06:28:35;;;;;;;3.13;1.97;;;;;;;17.43;81.68;100065.84;5062110;28;20232;-74
2021/07/05 06:31:05;;;;;;;2.30;2.10;;;;;;;17.58;83.04;100008.72;5061941;28;20578;-73
2021/07/05 06:33:31;;;;;;;2.53;2.20;;;;;;;17.66;81.95;100025.03;5061413;28;20654;-74
2021/07/05 06:35:58;;;;;;;2.20;2.10;;;;;;;17.71;81.11;100088.97;5061520;28;20203;-74
2021/07/05 06:38:26;;;;;;;3.00;1.90;;;;;;;17.79;82.37;100031.31;5062129;28;20285;-74
2021/07/05 06:40:55;;;;;;;1.63;1.53;;;;;;;17.87;81.44;100057.31;5061407;28;20579;-73
2021/07/05 06:43:22;;;;;;;2.13;1.83;;;;;;;17.79;81.07;100102.59;5061429;28;20227;-73
2021/07/05 06:45:48;;;;;;;1.80;1.70;;;;;;;17.91;81.99;100044.81;5062084;28;20481;-73
2021/07/05 06:48:16;;;;;;;2.23;2.03;;;;;;;17.96;81.16;100074.47;5062118;28;20224;-72
2021/07/05 06:50:43;;;;;;;3.70;2.20;;;;;;;18.04;81.54;100051.97;5062246;28;20217;-73
2021/07/05 06:53:10;;;;;;;2.33;1.90;;;;;;;18.06;81.33;100065.94;5065651;28;20215;-72
2021/07/05 06:55:37;;;;;;;2.47;1.93;;;;;;;18.14;83.66;99973.03;5065947;28;20602;-72
2021/07/05 06:58:05;;;;;;;1.93;1.80;;;;;;;18.12;79.72;100122.84;5066178;28;20230;-73
2021/07/05 07:00:32;;;;;;;2.07;1.97;;;;;;;18.25;82.93;100014.69;5066209;28;20651;-72
2021/07/05 07:03:01;;;;;;;2.87;2.00;;;;;;;18.29;80.36;100079.63;5065376;28;20233;-73
2021/07/05 07:05:33;;;;;;;1.97;1.60;;;;;;;18.25;77.17;100226.94;5066274;28;20460;-73
2021/07/05 07:08:00;;;;;;;1.70;1.60;;;;;;;18.36;79.25;100157.63;5065740;28;20219;-74
2021/07/05 07:10:27;;;;;;;1.67;1.57;;;;;;;18.47;77.97;100167.56;5065704;28;20200;-73
2021/07/05 07:12:55;;;;;;;2.60;1.87;;;;;;;18.51;77.70;100200.81;5065598;28;20221;-73
2021/07/05 07:15:28;;;;;;;2.73;1.60;;;;;;;18.62;77.11;100222.25;5065681;28;20556;-73
2021/07/05 07:17:58;;;;;;;2.40;2.20;;;;;;;18.82;79.96;100102.13;5065607;28;20232;-72
2021/07/05 07:20:25;;;;;;;2.10;2.00;;;;;;;19.00;81.90;100017.34;5065381;28;20198;-72
2021/07/05 07:22:52;;;;;;;2.30;1.60;;;;;;;19.11;80.28;100049.31;5065399;28;20717;-74
2021/07/05 07:25:19;;;;;;;1.70;1.60;;;;;;;19.28;78.23;100147.97;5065244;28;20207;-74
2021/07/05 07:27:46;;;;;;;2.40;1.97;;;;;;;19.45;78.93;100110.75;5065455;28;20232;-73
2021/07/05 07:30:14;;;;;;;2.50;1.90;;;;;;;19.43;75.32;100255.59;5065464;28;20666;-73
2021/07/05 07:32:42;;;;;;;2.10;2.00;;;;;;;19.48;76.29;100234.13;5065321;28;20210;-74
2021/07/05 07:35:10;;;;;;;2.03;1.50;;;;;;;19.44;74.19;100342.00;5065520;28;20211;-73
2021/07/05 07:37:38;;;;;;;1.90;1.60;;;;;;;19.61;76.67;100229.81;5064565;28;20234;-73
2021/07/05 07:40:15;;;;;;;2.40;1.67;;;;;;;19.68;75.63;100215.25;5065258;28;20216;-73
2021/07/05 07:42:42;;;;;;;2.43;1.70;;;;;;;19.80;77.46;100177.47;5064511;28;20246;-73
2021/07/05 07:45:10;;;;;;;5.23;1.60;;;;;;;19.81;78.21;100159.78;5065177;28;20211;-74
2021/07/05 07:47:37;;;;;;;1.97;1.87;;;;;;;19.69;78.88;100126.09;5064984;28;20227;-73
2021/07/05 07:50:04;;;;;;;1.60;1.50;;;;;;;19.78;78.36;100115.81;5065085;28;20205;-73
2021/07/05 07:52:30;;;;;;;4.10;1.90;;;;;;;19.65;76.93;100199.56;5064712;28;20218;-73
2021/07/05 07:54:56;;;;;;;2.20;2.00;;;;;;;19.77;80.54;100047.88;5065319;28;20215;-74
2021/07/05 07:57:24;;;;;;;2.30;2.03;;;;;;;19.85;79.01;100092.41;5064394;28;20235;-72
2021/07/05 07:59:51;;;;;;;5.50;1.90;;;;;;;19.77;76.68;100192.69;5064776;28;20215;-73
2021/07/05 08:02:17;;;;;;;2.00;1.90;;;;;;;19.84;76.66;100200.19;5063962;28;20200;-74
2021/07/05 08:04:44;;;;;;;2.40;2.17;;;;;;;20.01;78.90;100098.44;5064844;28;20661;-73
2021/07/05 08:07:11;;;;;;;1.90;1.80;;;;;;;20.07;77.64;100141.41;5064682;28;20221;-73
2021/07/05 08:09:39;;;;;;;2.00;1.90;;;;;;;20.02;77.96;100157.59;5064932;28;20674;-73
2021/07/05 08:12:07;;;;;;;2.23;2.03;;;;;;;20.11;77.02;100170.25;5064591;28;20212;-73
2021/07/05 08:14:35;;;;;;;1.90;1.80;;;;;;;20.22;78.05;100143.09;5064639;28;20599;-73
2021/07/05 08:17:01;;;;;;;1.70;1.60;;;;;;;20.29;76.41;100183.28;5064582;28;20234;-71
2021/07/05 08:19:28;;;;;;;1.60;1.50;;;;;;;20.31;75.19;100240.56;5065008;28;20276;-72
2021/07/05 08:21:54;;;;;;;2.53;1.90;;;;;;;20.20;73.55;100317.25;5064608;28;20215;-72
2021/07/05 08:24:21;;;;;;;3.90;2.23;;;;;;;20.19;75.18;100271.31;5063761;28;20710;-72
2021/07/05 08:26:48;;;;;;;2.10;2.00;;;;;;;20.20;75.27;100245.69;5064361;28;20218;-72
2021/07/05 08:29:14;;;;;;;2.00;1.90;;;;;;;20.18;74.97;100272.28;5064736;28;20208;-72
2021/07/05 08:31:42;;;;;;;5.13;2.17;;;;;;;20.27;75.42;100243.50;5063424;28;20207;-72
2021/07/05 08:34:09;;;;;;;2.23;1.67;;;;;;;20.27;75.50;100239.06;5063543;28;20468;-72
2021/07/05 08:36:39;;;;;;;2.13;1.83;;;;;;;20.31;76.18;100200.78;5064022;28;20232;-71
2021/07/05 08:39:06;;;;;;;2.33;1.80;;;;;;;20.38;76.47;100199.47;5063744;28;20262;-71
2021/07/05 08:41:33;;;;;;;2.37;2.13;;;;;;;20.39;74.58;100272.75;5064032;28;20218;-71
2021/07/05 08:43:59;;;;;;;1.73;1.60;;;;;;;20.41;74.43;100270.00;5062969;28;20770;-71
2021/07/05 08:46:26;;;;;;;2.03;1.70;;;;;;;20.20;75.14;100253.66;5063726;28;20231;-71
2021/07/05 08:48:54;;;;;;;2.10;1.77;;;;;;;20.16;74.33;100283.94;5063685;28;20216;-72
2021/07/05 08:51:21;;;;;;;2.07;1.60;;;;;;;20.21;75.12;100247.38;5062924;28;20221;-71
2021/07/05 08:53:51;;;;;;;1.80;1.70;;;;;;;20.22;74.72;100249.94;5062705;28;20239;-71
2021/07/05 08:56:18;;;;;;;2.20;2.03;;;;;;;20.27;75.24;100233.75;5062060;28;20567;-72
2021/07/05 08:58:46;;;;;;;2.57;2.10;;;;;;;20.19;75.88;100222.78;5062432;28;20211;-72
2021/07/05 09:01:13;;;;;;;2.47;1.63;;;;;;;20.19;75.89;100198.94;5063780;28;20238;-72
2021/07/05 09:03:40;;;;;;;2.13;1.50;;;;;;;20.27;76.33;100164.00;5063073;28;20229;-72
2021/07/05 09:06:09;;;;;;;1.60;1.50;;;;;;;20.17;75.57;100209.63;5063237;28;20744;-72
2021/07/05 09:08:38;;;;;;;2.03;1.60;;;;;;;20.22;75.84;100193.44;5063260;28;20217;-71
2021/07/05 09:11:06;;;;;;;1.50;1.40;;;;;;;20.36;75.12;100229.69;5061635;28;21062;-72
2021/07/05 09:13:34;;;;;;;2.03;1.47;;;;;;;20.36;75.29;100235.00;5061959;28;20205;-71
2021/07/05 09:16:02;;;;;;;3.33;1.57;;;;;;;20.34;74.68;100258.09;5063415;28;20227;-72
2021/07/05 09:18:32;;;;;;;2.00;1.80;;;;;;;20.32;74.65;100265.28;5063605;28;20224;-71
2021/07/05 09:21:21;;;;;;;1.63;1.46;;;;;;;20.42;74.69;100250.50;5025827;28;10000904;-72
2021/07/05 09:23:52;;;;;;;1.60;1.50;;;;;;;20.55;75.16;100246.09;5060204;28;20531;-74
2021/07/05 09:26:21;;;;;;;1.70;1.60;;;;;;;20.57;73.99;100277.84;5060398;28;20268;-74
2021/07/05 09:28:50;;;;;;;1.70;1.60;;;;;;;20.61;74.38;100264.34;5059880;28;20623;-73
2021/07/05 09:31:28;;;;;;;1.47;1.37;;;;;;;20.62;74.80;100252.75;5060710;28;20623;-73
2021/07/05 09:33:54;;;;;;;2.17;1.40;;;;;;;20.51;73.59;100318.00;5060579;28;20247;-73
2021/07/05 09:36:24;;;;;;;4.60;1.70;;;;;;;20.33;73.90;100294.34;5060625;28;20265;-72
2021/07/05 09:38:51;;;;;;;1.70;1.60;;;;;;;19.94;72.68;100347.97;5060412;28;20217;-73
2021/07/05 09:41:21;;;;;;;1.40;1.37;;;;;;;20.04;74.56;100274.94;5060216;28;20264;-73
2021/07/05 09:43:54;;;;;;;2.23;1.77;;;;;;;19.82;72.87;100349.53;5059808;28;20234;-71
2021/07/05 09:46:34;;;;;;;2.00;1.70;;;;;;;19.92;74.49;100267.72;5060473;28;20234;-74
2021/07/05 09:49:10;;;;;;;2.40;2.27;;;;;;;19.90;74.78;100267.84;5060466;28;20215;-72
2021/07/05 09:51:40;;;;;;;2.50;1.67;;;;;;;19.86;75.22;100249.53;5059996;28;20595;-72
2021/07/05 09:54:07;;;;;;;1.70;1.60;;;;;;;19.69;75.04;100253.19;5059866;28;20207;-72
2021/07/05 09:56:33;;;;;;;6.97;1.97;;;;;;;19.65;76.54;100181.03;5059727;28;20234;-75
2021/07/05 09:59:02;;;;;;;2.40;1.80;;;;;;;19.75;78.73;100123.94;5060058;28;20211;-72
2021/07/05 10:01:39;;;;;;;2.30;2.10;;;;;;;19.49;78.50;100103.50;5059976;28;20208;-74
2021/07/05 10:04:07;;;;;;;2.40;2.30;;;;;;;19.64;79.93;100054.84;5059553;28;20210;-72
2021/07/05 10:06:45;;;;;;;2.00;1.90;;;;;;;19.80;80.75;100023.84;5057396;28;20229;-73
2021/07/05 10:09:12;;;;;;;2.03;1.90;;;;;;;19.83;80.65;100020.16;5059571;28;20214;-72
2021/07/05 10:11:39;;;;;;;2.53;2.20;;;;;;;19.73;81.39;99992.56;5060149;28;20200;-73
2021/07/05 10:14:14;;;;;;;2.17;2.07;;;;;;;19.69;82.11;99965.38;5057625;28;20201;-72
2021/07/05 10:16:42;;;;;;;2.23;2.03;;;;;;;19.65;81.47;99990.38;5058907;28;20237;-73
2021/07/05 10:19:09;;;;;;;4.17;2.30;;;;;;;19.43;82.44;99972.34;5059416;28;20207;-73
2021/07/05 10:21:37;;;;;;;3.10;2.60;;;;;;;19.44;83.07;99931.69;5059176;28;20218;-72
2021/07/05 10:24:07;;;;;;;4.47;2.70;;;;;;;19.44;82.85;99945.78;5059299;28;20317;-74
2021/07/05 10:26:35;;;;;;;5.43;2.80;;;;;;;19.50;83.96;99919.84;5058341;28;21329;-74
2021/07/05 10:29:02;;;;;;;4.23;2.83;;;;;;;19.53;83.52;99920.50;5059160;28;20552;-72
2021/07/05 10:31:28;;;;;;;3.57;2.20;;;;;;;19.55;82.96;99954.84;5058980;28;20212;-72
2021/07/05 10:33:59;;;;;;;2.70;2.30;;;;;;;19.42;83.72;99925.63;5059033;28;20266;-73
2021/07/05 10:36:28;;;;;;;3.90;2.60;;;;;;;19.49;83.87;99921.66;5058968;28;20243;-72
2021/07/05 10:38:57;;;;;;;2.73;2.63;;;;;;;19.56;84.79;99904.44;5059002;28;20300;-72
2021/07/05 10:41:34;;;;;;;2.60;2.37;;;;;;;19.56;84.23;99906.22;5059246;28;20210;-73
2021/07/05 10:44:04;;;;;;;4.27;2.37;;;;;;;19.55;83.47;99942.44;5058173;28;20233;-74
2021/07/05 10:46:39;;;;;;;3.20;2.57;;;;;;;19.61;83.64;99935.91;5059087;28;20238;-74
2021/07/05 10:49:06;;;;;;;2.70;2.37;;;;;;;19.63;84.10;99915.47;5058667;28;20629;-74
2021/07/05 10:51:41;;;;;;;4.57;2.23;;;;;;;19.59;85.04;99880.41;5059730;28;20265;-74
2021/07/05 10:54:08;;;;;;;2.80;2.57;;;;;;;19.61;84.31;99912.91;5058800;28;20222;-72
2021/07/05 10:56:42;;;;;;;5.67;2.53;;;;;;;19.71;83.93;99928.22;5059201;28;20232;-73
2021/07/05 10:59:36;;;;;;;2.40;2.20;;;;;;;19.62;84.33;99929.66;5058534;28;20300;-73
2021/07/05 11:02:40;;;;;;;2.67;2.50;;;;;;;19.23;84.48;99936.56;5058052;28;20268;-74
2021/07/05 11:05:32;;;;;;;1.90;1.80;;;;;;;19.41;83.89;99953.91;5058745;28;21154;-74
2021/07/05 11:08:35;;;;;;;2.50;1.80;;;;;;;19.58;83.28;99967.88;5059071;28;20757;-74
2021/07/05 11:11:25;;;;;;;1.70;1.60;;;;;;;19.78;82.60;100001.91;5058981;28;20792;-72
2021/07/05 11:14:14;;;;;;;1.47;1.43;;;;;;;19.98;82.46;100003.28;5059037;28;20210;-72
2021/07/05 11:17:05;;;;;;;1.80;1.70;;;;;;;20.26;82.38;100016.50;5059115;28;20228;-71
2021/07/05 11:19:35;;;;;;;1.73;1.60;;;;;;;20.47;81.09;100067.25;5058959;28;20261;-73
2021/07/05 11:22:06;;;;;;;1.90;1.80;;;;;;;20.34;79.93;100115.78;5058699;28;20208;-73
2021/07/05 11:24:41;;;;;;;2.40;2.30;;;;;;;20.55;80.81;100084.34;5059362;28;20312;-72
2021/07/05 11:27:27;;;;;;;2.10;1.90;;;;;;;19.97;81.10;100067.78;5058707;28;20233;-73
2021/07/05 11:29:54;;;;;;;2.60;2.40;;;;;;;19.83;83.17;99983.06;5058860;28;20273;-74
2021/07/05 11:32:34;;;;;;;2.70;2.50;;;;;;;20.30;82.61;99963.19;5058938;28;20217;-74
2021/07/05 11:35:01;;;;;;;1.90;1.80;;;;;;;20.52;80.23;100038.63;5059355;28;20214;-73